Time;durP1;ratioP1;P1;durP2;ratioP2;P2;SDS_P1;SDS_P2;PMS_P1;PMS_P2;Temp;Humidity;BMP_temperature;BMP_pressure;BME280_temperature;BME280_humidity;BME280_pressure;Samples;Min_cycle;Max_cycle;Signal;HPM_P1;HPM_P2
2023/08/09 00:02:01;;;;;;;4.00;2.70;;;;;;;18.47;65.93;99436.09;5052237;28;20217;-75
2023/08/09 00:04:27;;;;;;;2.40;2.10;;;;;;;18.41;65.91;99424.25;5048232;28;20286;-75
2023/08/09 00:06:52;;;;;;;3.63;2.43;;;;;;;18.34;66.99;99424.03;5051736;28;21593;-74
2023/08/09 00:09:17;;;;;;;3.97;2.30;;;;;;;18.23;67.17;99418.13;5050313;28;20197;-74
2023/08/09 00:11:43;;;;;;;2.10;1.90;;;;;;;18.09;67.48;99407.00;5052817;28;20216;-74
2023/08/09 00:14:08;;;;;;;3.17;2.10;;;;;;;18.02;67.54;99411.25;5051968;28;20596;-75
2023/08/09 00:16:33;;;;;;;8.40;3.93;;;;;;;17.98;67.66;99409.03;5054429;28;20324;-74
2023/08/09 00:18:59;;;;;;;4.83;2.57;;;;;;;17.99;67.55;99402.75;5051686;28;20197;-74
2023/08/09 00:21:25;;;;;;;5.33;2.50;;;;;;;18.03;67.10;99385.50;5055999;28;20755;-74
2023/08/09 00:23:50;;;;;;;2.30;1.87;;;;;;;18.07;67.11;99378.91;5052153;28;20792;-75
2023/08/09 00:26:15;;;;;;;2.67;2.47;;;;;;;18.12;66.94;99373.97;5055381;28;20940;-74
2023/08/09 00:28:41;;;;;;;3.30;2.30;;;;;;;18.15;66.79;99368.34;5054604;28;20272;-75
2023/08/09 00:31:07;;;;;;;3.10;2.30;;;;;;;18.18;66.66;99376.03;5053462;28;20207;-74
2023/08/09 00:33:32;;;;;;;3.60;2.57;;;;;;;18.19;66.80;99379.50;5053691;28;20467;-74
2023/08/09 00:35:58;;;;;;;2.20;1.90;;;;;;;18.18;66.52;99380.50;5057068;28;20643;-74
2023/08/09 00:38:24;;;;;;;2.80;2.30;;;;;;;18.18;66.62;99375.19;5054244;28;20197;-75
2023/08/09 00:40:49;;;;;;;2.13;1.93;;;;;;;18.16;66.87;99380.66;5055868;28;20212;-75
2023/08/09 00:43:14;;;;;;;3.00;2.23;;;;;;;18.13;66.88;99389.75;5053583;28;20435;-75
2023/08/09 00:45:44;;;;;;;2.67;1.67;;;;;;;18.12;66.63;99387.28;5054480;28;20228;-75
2023/08/09 00:48:10;;;;;;;2.30;1.80;;;;;;;18.11;66.83;99383.75;5055846;28;20195;-74
2023/08/09 00:50:36;;;;;;;2.87;1.73;;;;;;;18.11;66.89;99383.75;5053232;28;20977;-75
2023/08/09 00:53:02;;;;;;;3.17;2.20;;;;;;;18.13;66.65;99395.06;5054160;28;20690;-75
2023/08/09 00:55:27;;;;;;;2.10;1.90;;;;;;;18.15;66.98;99394.94;5056777;28;20208;-74
2023/08/09 00:57:54;;;;;;;5.90;3.30;;;;;;;18.13;67.10;99402.22;5053962;28;20501;-75
2023/08/09 01:00:20;;;;;;;2.40;2.17;;;;;;;18.06;67.19;99396.66;5054254;28;20815;-74
2023/08/09 01:02:45;;;;;;;2.77;2.00;;;;;;;18.02;67.11;99387.31;5055324;28;20338;-75
2023/08/09 01:05:11;;;;;;;3.77;3.00;;;;;;;18.01;67.41;99387.47;5053919;28;20279;-75
2023/08/09 01:07:44;;;;;;;3.97;1.97;;;;;;;18.03;67.41;99390.81;5056733;28;20306;-75
2023/08/09 01:10:18;;;;;;;2.80;2.03;;;;;;;18.06;67.22;99398.47;5049403;28;20707;-75
2023/08/09 01:12:55;;;;;;;4.07;2.70;;;;;;;18.09;67.20;99395.53;5053956;28;20833;-74
2023/08/09 01:15:22;;;;;;;3.33;2.00;;;;;;;18.09;67.43;99395.53;5052943;28;20451;-74
2023/08/09 01:17:51;;;;;;;2.23;2.03;;;;;;;18.11;67.34;99388.25;5054513;28;20451;-74
2023/08/09 01:20:18;;;;;;;4.00;2.40;;;;;;;18.13;67.13;99384.44;5051900;28;20452;-74
2023/08/09 01:23:03;;;;;;;3.10;2.70;;;;;;;18.20;67.21;99391.81;5055359;28;20538;-74
2023/08/09 01:25:32;;;;;;;2.17;1.97;;;;;;;18.21;66.97;99390.84;5055041;28;20429;-75
2023/08/09 01:27:58;;;;;;;2.73;1.90;;;;;;;18.20;67.00;99387.34;5041424;28;20969;-75
2023/08/09 01:30:23;;;;;;;2.23;1.90;;;;;;;18.21;66.82;99377.53;5052517;28;20452;-74
2023/08/09 01:32:49;;;;;;;3.23;2.13;;;;;;;18.20;66.79;99382.03;5050712;28;22510;-74
2023/08/09 01:35:16;;;;;;;2.83;1.53;;;;;;;18.20;66.68;99387.34;5054364;28;20234;-75
2023/08/09 01:38:06;;;;;;;2.40;1.83;;;;;;;18.22;66.51;99390.66;5043490;28;21042;-74
2023/08/09 01:40:34;;;;;;;2.27;2.07;;;;;;;18.21;66.39;99386.34;5054793;28;20939;-74
2023/08/09 01:43:01;;;;;;;2.83;1.50;;;;;;;18.24;65.92;99383.38;5041049;28;20459;-75
2023/08/09 01:45:28;;;;;;;2.77;2.07;;;;;;;18.26;65.98;99386.72;5055443;28;20434;-75
2023/08/09 01:47:55;;;;;;;3.63;2.23;;;;;;;18.28;65.79;99383.91;5055111;28;20477;-75
2023/08/09 01:50:25;;;;;;;2.03;1.80;;;;;;;18.29;66.01;99382.94;5048658;28;20843;-75
2023/08/09 01:52:55;;;;;;;2.10;1.70;;;;;;;18.31;65.69;99378.31;5054767;28;20673;-74
2023/08/09 01:55:22;;;;;;;2.43;2.20;;;;;;;18.30;65.38;99380.09;5053044;28;20883;-74
2023/08/09 01:57:48;;;;;;;3.00;2.10;;;;;;;18.33;65.67;99387.81;5054028;28;20865;-74
2023/08/09 02:00:19;;;;;;;2.90;2.23;;;;;;;18.35;65.46;99383.16;5064554;28;20439;-75
2023/08/09 02:02:49;;;;;;;2.60;1.80;;;;;;;18.38;65.40;99386.50;5043304;28;20447;-74
2023/08/09 02:05:14;;;;;;;2.07;1.83;;;;;;;18.35;65.30;99382.31;5053258;28;20450;-74
2023/08/09 02:07:40;;;;;;;2.23;1.80;;;;;;;18.34;65.33;99384.16;5070657;28;20458;-74
2023/08/09 02:10:07;;;;;;;3.33;2.37;;;;;;;18.36;65.18;99383.97;5049861;28;20458;-75
2023/08/09 02:12:32;;;;;;;2.30;1.77;;;;;;;18.39;64.82;99390.81;5053066;28;20240;-74
2023/08/09 02:14:57;;;;;;;2.27;1.67;;;;;;;18.39;64.87;99385.50;5054655;28;20826;-74
2023/08/09 02:17:23;;;;;;;2.00;1.83;;;;;;;18.38;65.06;99389.16;5068769;28;20385;-75
2023/08/09 02:19:49;;;;;;;2.10;1.90;;;;;;;18.39;64.78;99386.34;5054058;28;21097;-75
2023/08/09 02:22:19;;;;;;;2.00;1.80;;;;;;;18.38;64.88;99386.50;5053171;28;20199;-74
2023/08/09 02:24:45;;;;;;;1.80;1.70;;;;;;;18.38;65.03;99378.50;5055345;28;20945;-74
2023/08/09 02:27:10;;;;;;;2.13;1.77;;;;;;;18.38;64.79;99389.16;5050226;28;20464;-74
2023/08/09 02:29:36;;;;;;;3.53;2.10;;;;;;;18.38;64.86;99394.47;5052298;28;21886;-75
2023/08/09 02:32:02;;;;;;;2.13;1.90;;;;;;;18.38;64.91;99394.47;5047183;28;20209;-74
2023/08/09 02:34:28;;;;;;;2.50;2.13;;;;;;;18.41;65.21;99391.50;5049810;28;20826;-74
2023/08/09 02:36:54;;;;;;;4.37;2.10;;;;;;;18.40;65.01;99388.00;5058674;28;20944;-75
2023/08/09 02:39:20;;;;;;;2.40;2.20;;;;;;;18.40;64.87;99390.66;5053142;28;20207;-74
2023/08/09 02:41:46;;;;;;;3.43;1.70;;;;;;;18.40;65.22;99400.47;5054081;28;20630;-74
2023/08/09 02:44:11;;;;;;;2.60;1.87;;;;;;;18.39;65.06;99404.97;5051894;28;20193;-75
2023/08/09 02:46:38;;;;;;;2.60;2.40;;;;;;;18.39;64.95;99406.75;5050849;28;20398;-74
2023/08/09 02:49:03;;;;;;;2.53;2.10;;;;;;;18.38;65.30;99405.09;5050035;28;20454;-75
2023/08/09 02:51:29;;;;;;;2.17;1.97;;;;;;;18.37;65.13;99411.44;5069327;28;20598;-74
2023/08/09 02:54:00;;;;;;;2.77;1.90;;;;;;;18.35;65.09;99412.41;5052259;28;20443;-75
2023/08/09 02:56:26;;;;;;;3.13;2.10;;;;;;;18.35;65.33;99409.72;5051997;28;20619;-74
2023/08/09 02:58:52;;;;;;;2.17;1.80;;;;;;;18.32;65.50;99414.53;5051539;28;20422;-74
2023/08/09 03:01:19;;;;;;;2.53;1.77;;;;;;;18.29;65.36;99412.19;5048915;28;20980;-75
2023/08/09 03:03:44;;;;;;;2.70;2.00;;;;;;;18.30;66.02;99414.66;5060790;28;20551;-75
2023/08/09 03:06:10;;;;;;;2.10;1.90;;;;;;;18.31;65.62;99427.00;5066159;28;20823;-75
2023/08/09 03:08:36;;;;;;;2.70;1.77;;;;;;;18.30;65.94;99417.31;5048791;28;20192;-74
2023/08/09 03:11:02;;;;;;;1.73;1.63;;;;;;;18.32;65.88;99433.97;5064970;28;20497;-74
2023/08/09 03:13:28;;;;;;;2.10;1.90;;;;;;;18.30;65.98;99417.31;5050154;28;20496;-74
2023/08/09 03:15:54;;;;;;;1.70;1.60;;;;;;;18.27;65.87;99430.09;5052112;28;20985;-75
2023/08/09 03:18:19;;;;;;;4.20;2.20;;;;;;;18.25;66.28;99421.44;5051360;28;20292;-75
2023/08/09 03:20:45;;;;;;;5.60;2.10;;;;;;;18.25;66.16;99426.75;5047186;28;20271;-74
2023/08/09 03:23:11;;;;;;;3.20;2.60;;;;;;;18.20;66.56;99415.72;5066614;28;20184;-75
2023/08/09 03:25:37;;;;;;;2.00;1.90;;;;;;;18.17;66.29;99431.97;5051600;28;20466;-74
2023/08/09 03:28:03;;;;;;;2.00;1.90;;;;;;;18.16;66.41;99435.63;5053867;28;20935;-74
2023/08/09 03:30:30;;;;;;;2.67;1.97;;;;;;;18.17;66.68;99434.66;5051099;28;20218;-75
2023/08/09 03:32:55;;;;;;;3.30;2.03;;;;;;;18.19;66.72;99440.66;5049178;28;20466;-75
2023/08/09 03:35:21;;;;;;;2.85;1.95;;;;;;;18.20;66.37;99440.53;5050481;28;20756;-75
2023/08/09 03:37:46;;;;;;;2.17;1.97;;;;;;;18.20;66.24;99429.88;5053299;28;20248;-75
2023/08/09 03:40:13;;;;;;;3.80;2.03;;;;;;;18.22;66.55;99429.72;5053122;28;20201;-75
2023/08/09 03:42:47;;;;;;;2.80;2.60;;;;;;;18.20;66.64;99421.91;5050341;28;20266;-75
2023/08/09 03:45:13;;;;;;;3.43;2.63;;;;;;;18.21;66.68;99415.59;5054109;28;20457;-74
2023/08/09 03:47:39;;;;;;;3.03;2.70;;;;;;;18.22;66.62;99427.06;5051624;28;20455;-75
2023/08/09 03:50:06;;;;;;;3.50;2.90;;;;;;;18.23;66.70;99434.06;5066722;28;20882;-74
2023/08/09 03:52:33;;;;;;;4.70;2.90;;;;;;;18.22;66.58;99435.88;5052390;28;20471;-75
2023/08/09 03:54:59;;;;;;;3.07;2.77;;;;;;;18.25;66.75;99450.69;5053131;28;20185;-75
2023/08/09 03:57:27;;;;;;;2.63;2.07;;;;;;;18.25;66.58;99454.16;5047222;28;20443;-74
2023/08/09 03:59:54;;;;;;;2.67;2.00;;;;;;;18.26;66.45;99445.22;5069330;28;20451;-74
2023/08/09 04:02:19;;;;;;;5.33;3.13;;;;;;;18.27;66.26;99452.19;5054219;28;20455;-74
2023/08/09 04:04:47;;;;;;;2.37;2.07;;;;;;;18.28;66.32;99453.88;5071960;28;20485;-75
2023/08/09 04:07:12;;;;;;;3.13;1.90;;;;;;;18.29;66.32;99452.91;5053581;28;20955;-74
2023/08/09 04:09:38;;;;;;;2.03;1.90;;;;;;;18.31;65.66;99452.75;5053880;28;20543;-75
2023/08/09 04:12:04;;;;;;;2.20;1.90;;;;;;;18.33;65.87;99462.25;5054425;28;20212;-75
2023/08/09 04:14:29;;;;;;;2.40;1.40;;;;;;;18.35;65.74;99454.09;5070739;28;20704;-74
2023/08/09 04:16:56;;;;;;;4.50;1.93;;;;;;;18.38;65.51;99463.63;5056710;28;20561;-74
2023/08/09 04:19:26;;;;;;;2.40;1.80;;;;;;;18.39;65.04;99455.50;5054398;28;20212;-75
2023/08/09 04:21:52;;;;;;;2.17;1.60;;;;;;;18.41;64.53;99456.16;5056701;28;20429;-74
2023/08/09 04:24:18;;;;;;;1.60;1.20;;;;;;;18.42;64.05;99452.53;5055980;28;20501;-74
2023/08/09 04:26:43;;;;;;;1.50;1.37;;;;;;;18.45;63.47;99444.25;5054336;28;20569;-75
2023/08/09 04:29:09;;;;;;;2.50;1.90;;;;;;;18.47;63.03;99450.25;5056852;28;20673;-75
2023/08/09 04:31:35;;;;;;;1.60;1.30;;;;;;;18.51;62.89;99448.13;5054887;28;20201;-74
2023/08/09 04:34:00;;;;;;;2.97;1.23;;;;;;;18.54;62.42;99458.44;5053146;28;20236;-76
2023/08/09 04:36:26;;;;;;;1.20;1.10;;;;;;;18.57;61.82;99458.97;5055663;28;20260;-74
2023/08/09 04:38:52;;;;;;;4.33;1.73;;;;;;;18.58;61.83;99460.66;5053718;28;20212;-74
2023/08/09 04:41:18;;;;;;;1.53;1.30;;;;;;;18.59;61.15;99456.16;5051299;28;20936;-74
2023/08/09 04:43:44;;;;;;;1.50;1.37;;;;;;;18.59;61.10;99466.81;5054589;28;20466;-75
2023/08/09 04:46:13;;;;;;;1.90;1.53;;;;;;;18.61;60.72;99448.88;5051848;28;21169;-75
2023/08/09 04:48:43;;;;;;;1.37;1.27;;;;;;;18.65;60.54;99454.72;5054428;28;20508;-74
2023/08/09 04:51:09;;;;;;;2.10;1.63;;;;;;;18.67;60.03;99456.25;5054400;28;21173;-75
2023/08/09 04:53:36;;;;;;;2.03;1.30;;;;;;;18.68;60.00;99465.03;5054361;28;20423;-74
2023/08/09 04:56:03;;;;;;;3.30;1.70;;;;;;;18.69;60.15;99462.25;5046969;28;20953;-75
2023/08/09 04:58:31;;;;;;;2.17;1.50;;;;;;;18.71;60.16;99465.59;5050805;28;20486;-73
2023/08/09 05:00:58;;;;;;;1.97;1.50;;;;;;;18.70;60.02;99463.91;5046296;28;20459;-75
2023/08/09 05:03:23;;;;;;;1.97;1.77;;;;;;;18.71;60.08;99464.75;5064516;28;20429;-76
2023/08/09 05:05:49;;;;;;;2.55;1.70;;;;;;;18.73;60.34;99460.09;5053084;28;20445;-76
2023/08/09 05:08:15;;;;;;;4.03;1.70;;;;;;;18.74;60.14;99456.44;5054110;28;21036;-76
2023/08/09 05:10:40;;;;;;;2.83;1.57;;;;;;;18.75;59.89;99461.66;5056545;28;20205;-76
2023/08/09 05:13:06;;;;;;;1.70;1.30;;;;;;;18.76;59.91;99460.66;5054535;28;20324;-76
2023/08/09 05:15:31;;;;;;;2.07;1.10;;;;;;;18.80;59.49;99458.53;5052001;28;20223;-74
2023/08/09 05:17:57;;;;;;;2.43;2.23;;;;;;;18.84;59.43;99456.41;5051701;28;20201;-75
2023/08/09 05:20:22;;;;;;;2.90;2.13;;;;;;;18.86;59.41;99465.06;5048286;28;20648;-75
2023/08/09 05:22:48;;;;;;;2.80;1.27;;;;;;;18.86;59.35;99465.91;5051589;28;20696;-74
2023/08/09 05:25:14;;;;;;;2.63;1.50;;;;;;;18.87;59.16;99470.22;5050760;28;20197;-75
2023/08/09 05:27:40;;;;;;;1.67;1.57;;;;;;;18.89;59.25;99470.91;5039337;22;21173;-74
2023/08/09 05:30:06;;;;;;;3.10;1.30;;;;;;;18.90;59.19;99477.06;4998465;28;20206;-74
2023/08/09 05:32:31;;;;;;;2.20;1.20;;;;;;;18.88;59.23;99484.38;5016080;28;20214;-74
2023/08/09 05:34:56;;;;;;;2.73;1.30;;;;;;;18.87;59.59;99485.38;5018717;28;20486;-74
2023/08/09 05:37:22;;;;;;;3.03;1.80;;;;;;;18.84;59.81;99480.34;5016008;28;20214;-74
2023/08/09 05:39:47;;;;;;;1.63;1.53;;;;;;;18.83;60.19;99487.50;5016965;28;20229;-73
2023/08/09 05:42:12;;;;;;;2.80;1.40;;;;;;;18.81;60.27;99492.13;5013357;28;20240;-73
2023/08/09 05:44:38;;;;;;;2.60;2.07;;;;;;;18.81;60.04;99501.94;5017183;28;20288;-77
2023/08/09 05:47:04;;;;;;;2.80;1.53;;;;;;;18.82;60.15;99508.94;5020479;28;20720;-78
2023/08/09 05:49:29;;;;;;;2.00;1.80;;;;;;;18.83;60.10;99502.63;5017547;28;20194;-79
2023/08/09 05:51:55;;;;;;;1.80;1.53;;;;;;;18.82;60.10;99504.44;5015276;28;20241;-80
2023/08/09 05:54:20;;;;;;;3.30;1.53;;;;;;;18.85;60.26;99508.63;5012160;28;20194;-82
2023/08/09 05:56:46;;;;;;;4.10;2.43;;;;;;;18.86;60.24;99503.16;5017259;28;20295;-78
2023/08/09 05:59:11;;;;;;;2.60;1.53;;;;;;;18.86;60.22;99502.34;5019500;28;20198;-81
2023/08/09 06:01:37;;;;;;;2.13;1.23;;;;;;;18.86;60.17;99497.00;5015865;28;20205;-77
2023/08/09 06:04:03;;;;;;;1.50;1.40;;;;;;;18.87;60.08;99499.50;5018722;28;20275;-75
2023/08/09 06:06:29;;;;;;;2.22;1.77;;;;;;;18.91;59.68;99502.72;5015190;28;20844;-79
2023/08/09 06:08:55;;;;;;;2.13;1.70;;;;;;;18.92;59.80;99509.69;5016740;28;20503;-74
2023/08/09 06:11:20;;;;;;;2.47;1.40;;;;;;;18.96;59.51;99509.25;5016032;28;20206;-77
2023/08/09 06:13:46;;;;;;;2.17;1.60;;;;;;;18.98;59.48;99507.28;5016621;28;20593;-81
2023/08/09 06:16:11;;;;;;;1.90;1.60;;;;;;;19.02;59.11;99507.78;5018140;28;20210;-76
2023/08/09 06:18:37;;;;;;;1.90;1.60;;;;;;;19.06;58.91;99514.47;5015031;28;20439;-78
2023/08/09 06:21:04;;;;;;;1.73;1.60;;;;;;;19.10;58.99;99505.19;5013761;28;20194;-75
2023/08/09 06:23:29;;;;;;;3.70;1.83;;;;;;;19.15;58.59;99512.72;4999520;28;20259;-74
2023/08/09 06:25:55;;;;;;;2.57;2.00;;;;;;;19.18;58.79;99510.56;5015296;28;20631;-75
2023/08/09 06:28:20;;;;;;;1.70;1.60;;;;;;;19.20;58.58;99519.25;5014822;28;20194;-81
2023/08/09 06:30:46;;;;;;;1.93;1.13;;;;;;;19.22;58.48;99519.91;5010217;28;20265;-80
2023/08/09 06:33:11;;;;;;;1.87;1.37;;;;;;;19.24;58.28;99525.91;5014053;28;20322;-79
2023/08/09 06:35:37;;;;;;;1.50;1.40;;;;;;;19.26;58.25;99530.28;5016507;28;20441;-78
2023/08/09 06:38:02;;;;;;;2.00;1.53;;;;;;;19.27;58.16;99530.09;5017863;28;20472;-78
2023/08/09 06:40:28;;;;;;;1.63;1.53;;;;;;;19.28;58.21;99530.94;5011155;28;20194;-80
2023/08/09 06:42:53;;;;;;;1.70;1.30;;;;;;;19.30;57.95;99528.97;5013247;28;20209;-82
2023/08/09 06:45:22;;;;;;;3.60;1.60;;;;;;;19.31;57.89;99542.13;4998268;28;20708;-81
2023/08/09 06:47:48;;;;;;;1.73;1.60;;;;;;;19.32;57.91;99537.63;5015812;28;20477;-80
2023/08/09 06:50:13;;;;;;;1.40;1.30;;;;;;;19.34;57.85;99543.66;5015373;28;20209;-82
2023/08/09 06:52:39;;;;;;;2.47;1.60;;;;;;;19.35;58.08;99547.97;5013366;28;20641;-80
2023/08/09 06:55:08;;;;;;;2.57;1.47;;;;;;;19.34;58.13;99540.97;5016401;28;20452;-76
2023/08/09 06:57:35;;;;;;;2.10;1.40;;;;;;;19.35;58.41;99538.16;5015728;28;20255;-81
2023/08/09 07:00:01;;;;;;;2.03;1.53;;;;;;;19.36;58.56;99533.66;5014141;28;20498;-80
2023/08/09 07:02:26;;;;;;;1.93;1.37;;;;;;;19.38;58.67;99542.34;5016233;28;21563;-78
2023/08/09 07:04:54;;;;;;;3.87;1.80;;;;;;;19.40;59.06;99545.69;5015457;28;20466;-80
2023/08/09 07:07:21;;;;;;;1.47;1.30;;;;;;;19.43;59.24;99545.38;5014781;28;20217;-79
2023/08/09 07:09:46;;;;;;;3.90;2.03;;;;;;;19.46;59.29;99545.88;5015959;28;20832;-76
2023/08/09 07:12:12;;;;;;;3.03;1.63;;;;;;;19.50;59.29;99541.09;5013029;28;20848;-79
2023/08/09 07:14:37;;;;;;;1.93;1.53;;;;;;;19.55;59.30;99540.59;5016076;28;20214;-78
2023/08/09 07:17:03;;;;;;;1.83;1.70;;;;;;;19.59;59.32;99549.97;5018488;28;20196;-82
2023/08/09 07:19:28;;;;;;;2.13;1.60;;;;;;;19.64;59.43;99534.34;5014361;28;20595;-80
2023/08/09 07:21:54;;;;;;;1.90;1.40;;;;;;;19.69;59.16;99542.75;5009359;28;20187;-76
2023/08/09 07:24:19;;;;;;;2.40;1.70;;;;;;;19.73;59.31;99543.25;5014101;28;20610;-76
2023/08/09 07:26:44;;;;;;;2.67;1.77;;;;;;;19.74;59.45;99536.91;5015098;28;20582;-78
2023/08/09 07:29:10;;;;;;;3.73;1.23;;;;;;;19.76;59.59;99529.59;5002957;28;20194;-82
2023/08/09 07:31:35;;;;;;;3.50;1.50;;;;;;;19.78;59.54;99533.78;5015673;28;20326;-75
2023/08/09 07:34:01;;;;;;;2.40;2.20;;;;;;;19.81;59.51;99525.47;5015691;28;20710;-75
2023/08/09 07:36:27;;;;;;;2.70;1.90;;;;;;;19.85;59.59;99524.16;5017277;28;21031;-83
2023/08/09 07:38:52;;;;;;;3.13;1.70;;;;;;;19.88;59.70;99523.84;5020637;28;20225;-80
2023/08/09 07:41:18;;;;;;;2.03;1.83;;;;;;;19.92;59.43;99518.19;5018716;28;20424;-82
2023/08/09 07:43:44;;;;;;;3.40;1.60;;;;;;;19.97;59.53;99515.88;5017181;28;20494;-78
2023/08/09 07:46:10;;;;;;;3.33;1.90;;;;;;;20.01;59.35;99522.56;5019774;28;20200;-79
2023/08/09 07:48:36;;;;;;;1.67;1.50;;;;;;;20.06;59.18;99531.78;5020024;28;20203;-82
2023/08/09 07:51:01;;;;;;;5.60;1.80;;;;;;;20.12;58.90;99522.28;5015772;28;20463;-81
2023/08/09 07:53:27;;;;;;;3.00;2.00;;;;;;;20.18;58.69;99528.81;5015687;28;20255;-78
2023/08/09 07:55:53;;;;;;;1.63;1.53;;;;;;;20.23;58.32;99531.81;5019626;28;20203;-81
2023/08/09 07:58:18;;;;;;;3.20;2.13;;;;;;;20.27;58.06;99523.31;5019683;28;20208;-81
2023/08/09 08:00:44;;;;;;;1.90;1.63;;;;;;;20.33;57.79;99527.16;5012497;28;20484;-80
2023/08/09 08:03:09;;;;;;;1.33;1.23;;;;;;;20.42;57.40;99520.88;5015759;28;20667;-77
2023/08/09 08:05:36;;;;;;;1.90;1.50;;;;;;;20.54;57.17;99519.59;5016278;28;20461;-81
2023/08/09 08:08:02;;;;;;;1.23;1.13;;;;;;;20.63;56.55;99524.94;5018635;28;20521;-78
2023/08/09 08:10:27;;;;;;;1.47;1.37;;;;;;;20.68;56.51;99530.63;5012987;28;20990;-81
2023/08/09 08:12:53;;;;;;;3.43;1.33;;;;;;;20.70;56.33;99531.28;5020844;28;20230;-82
2023/08/09 08:15:19;;;;;;;1.50;1.40;;;;;;;20.75;55.92;99537.81;5014559;28;20205;-78
2023/08/09 08:17:46;;;;;;;18.37;2.33;;;;;;;20.78;55.64;99526.78;5019247;28;20238;-78
2023/08/09 08:20:15;;;;;;;3.87;1.53;;;;;;;20.82;55.54;99526.47;5014621;28;20197;-81
2023/08/09 08:22:45;;;;;;;3.63;1.50;;;;;;;20.89;55.47;99532.81;5016669;28;21483;-75
2023/08/09 08:25:12;;;;;;;1.70;1.30;;;;;;;20.96;54.83;99533.84;5017786;28;20437;-81
2023/08/09 08:27:37;;;;;;;1.90;1.27;;;;;;;21.01;54.70;99531.50;5019071;28;20486;-80
2023/08/09 08:30:04;;;;;;;1.93;1.30;;;;;;;21.07;54.31;99528.16;5017097;28;20855;-81
2023/08/09 08:32:31;;;;;;;1.60;1.30;;;;;;;21.13;54.09;99538.16;5013304;28;21035;-80
2023/08/09 08:34:56;;;;;;;2.10;1.30;;;;;;;21.18;54.01;99535.00;5013302;28;21083;-81
2023/08/09 08:37:25;;;;;;;4.17;1.40;;;;;;;21.24;53.59;99539.66;5017998;28;20721;-77
2023/08/09 08:39:50;;;;;;;1.70;1.53;;;;;;;21.28;53.78;99548.16;5016223;28;20228;-75
2023/08/09 08:42:17;;;;;;;2.00;1.43;;;;;;;21.32;53.56;99547.66;5000670;28;20432;-84
2023/08/09 08:44:43;;;;;;;2.20;1.33;;;;;;;21.39;53.54;99555.88;5014010;28;20537;-78
2023/08/09 08:47:08;;;;;;;1.70;1.43;;;;;;;21.40;52.91;99558.38;5018904;28;20803;-77
2023/08/09 08:49:35;;;;;;;2.10;1.43;;;;;;;21.43;53.22;99555.38;5012636;28;20324;-81
2023/08/09 08:52:06;;;;;;;1.40;1.30;;;;;;;21.48;52.96;99556.72;5019155;28;20551;-81
2023/08/09 08:54:32;;;;;;;3.63;1.63;;;;;;;21.51;52.63;99562.53;5019949;28;20739;-79
2023/08/09 08:56:57;;;;;;;3.13;1.37;;;;;;;21.54;52.56;99566.72;5020361;28;20457;-76
2023/08/09 08:59:23;;;;;;;1.30;1.10;;;;;;;21.56;52.74;99570.88;5021185;28;20206;-77
2023/08/09 09:01:49;;;;;;;3.10;2.80;;;;;;;21.61;52.85;99573.06;5015341;28;20209;-78
2023/08/09 09:04:14;;;;;;;2.57;1.40;;;;;;;21.66;52.36;99568.03;5022346;28;20799;-81
2023/08/09 09:06:40;;;;;;;3.00;1.60;;;;;;;21.72;52.21;99567.34;5017686;28;20448;-81
2023/08/09 09:09:11;;;;;;;1.80;1.20;;;;;;;21.76;52.14;99567.84;5020966;28;20455;-83
2023/08/09 09:11:37;;;;;;;3.17;2.23;;;;;;;21.81;52.10;99574.34;5018725;28;20463;-81
2023/08/09 09:14:09;;;;;;;2.00;1.37;;;;;;;21.84;51.48;99574.00;5022211;28;20451;-76
2023/08/09 09:16:35;;;;;;;1.77;1.43;;;;;;;21.84;51.81;99570.50;5020728;28;20997;-80
2023/08/09 09:19:02;;;;;;;2.33;1.57;;;;;;;21.86;51.49;99566.66;5022059;28;20475;-83
2023/08/09 09:21:32;;;;;;;2.00;1.30;;;;;;;21.90;51.62;99563.63;5016523;28;20461;-75
2023/08/09 09:24:02;;;;;;;1.60;1.17;;;;;;;21.92;51.29;99567.78;5018485;28;21026;-77
2023/08/09 09:26:28;;;;;;;2.30;1.20;;;;;;;21.93;51.17;99568.63;5019560;28;20483;-81
2023/08/09 09:28:53;;;;;;;2.57;1.80;;;;;;;21.97;51.26;99564.59;5021989;28;20442;-75
2023/08/09 09:31:19;;;;;;;1.60;1.50;;;;;;;22.01;51.01;99571.31;5014729;28;20727;-77
2023/08/09 09:33:47;;;;;;;1.63;1.40;;;;;;;22.08;51.12;99566.91;5017423;28;20202;-81
2023/08/09 09:36:13;;;;;;;5.00;2.00;;;;;;;22.18;50.72;99566.72;5017911;28;20209;-80
2023/08/09 09:38:39;;;;;;;2.10;1.90;;;;;;;22.28;50.38;99565.53;5020209;28;20510;-78
2023/08/09 09:41:07;;;;;;;2.80;1.83;;;;;;;22.40;50.14;99567.81;5015589;28;20260;-80
2023/08/09 09:43:33;;;;;;;2.10;1.80;;;;;;;22.49;49.83;99574.78;5018175;28;20459;-79
2023/08/09 09:45:59;;;;;;;2.70;1.50;;;;;;;22.56;50.12;99581.13;5015375;28;20432;-76
2023/08/09 09:48:27;;;;;;;3.87;2.00;;;;;;;22.63;49.59;99584.75;5016657;28;20446;-73
2023/08/09 09:50:53;;;;;;;4.70;1.73;;;;;;;22.65;49.50;99587.25;5013871;28;20810;-73
2023/08/09 09:53:20;;;;;;;1.70;1.60;;;;;;;22.67;49.63;99580.72;5016439;28;20450;-73
2023/08/09 09:55:46;;;;;;;5.03;1.50;;;;;;;22.67;49.65;99578.03;5013960;28;20468;-73
2023/08/09 09:58:12;;;;;;;1.87;1.50;;;;;;;22.68;49.30;99585.06;5014579;28;20442;-73
2023/08/09 10:00:42;;;;;;;1.50;1.40;;;;;;;22.69;49.19;99573.34;5012289;28;20531;-75
2023/08/09 10:03:09;;;;;;;1.93;1.40;;;;;;;22.74;48.91;99576.31;5017003;28;20520;-74
2023/08/09 10:05:40;;;;;;;2.13;1.50;;;;;;;22.78;48.76;99567.94;5020677;28;20461;-75
2023/08/09 10:08:08;;;;;;;2.87;1.60;;;;;;;22.87;48.80;99577.56;5021851;28;20507;-77
2023/08/09 10:10:36;;;;;;;1.70;1.47;;;;;;;22.98;48.46;99563.81;5019104;28;20539;-76
2023/08/09 10:13:04;;;;;;;1.70;1.60;;;;;;;23.12;48.33;99564.88;5019481;28;20473;-74
2023/08/09 10:15:41;;;;;;;4.37;1.80;;;;;;;23.32;47.98;99575.94;5019039;28;20499;-76
2023/08/09 10:18:12;;;;;;;19.87;6.80;;;;;;;23.53;47.77;99559.97;5021138;28;20469;-76
2023/08/09 10:20:44;;;;;;;2.93;1.60;;;;;;;23.70;47.25;99557.13;5015821;28;20475;-76
2023/08/09 10:23:22;;;;;;;17.30;3.93;;;;;;;23.75;47.12;99560.97;5019428;28;20990;-75
2023/08/09 10:25:48;;;;;;;11.17;2.70;;;;;;;23.77;46.97;99564.28;5016113;28;20531;-76
2023/08/09 10:28:14;;;;;;;11.80;2.97;;;;;;;23.78;46.61;99568.63;5016791;28;20738;-76
2023/08/09 10:30:44;;;;;;;1.83;1.33;;;;;;;23.79;46.60;99561.41;5019811;28;20456;-75
2023/08/09 10:33:10;;;;;;;5.07;1.80;;;;;;;23.84;46.52;99572.44;5019730;28;20921;-75
2023/08/09 10:35:46;;;;;;;6.60;2.23;;;;;;;23.94;46.32;99569.47;5020235;28;20451;-75
2023/08/09 10:38:13;;;;;;;3.93;2.10;;;;;;;24.07;46.10;99564.28;5019995;28;20210;-77
2023/08/09 10:40:41;;;;;;;3.00;2.00;;;;;;;24.25;45.54;99567.44;5015808;28;20452;-76
2023/08/09 10:43:08;;;;;;;5.73;3.60;;;;;;;24.46;44.91;99569.34;5020306;28;20477;-76
2023/08/09 10:45:34;;;;;;;3.00;1.70;;;;;;;24.60;44.69;99561.44;5018128;28;20467;-76
2023/08/09 10:48:47;;;;;;;3.53;1.50;;;;;;;24.70;44.53;99561.97;5019201;28;20461;-76
2023/08/09 10:51:13;;;;;;;3.33;1.63;;;;;;;24.78;44.49;99559.16;4949936;28;21462;-74
2023/08/09 10:53:57;;;;;;;3.73;1.63;;;;;;;24.84;44.30;99552.19;5009838;28;20483;-74
2023/08/09 10:56:41;;;;;;;2.50;1.63;;;;;;;24.90;43.62;99549.59;5020694;28;20621;-77
2023/08/09 10:59:21;;;;;;;3.57;1.50;;;;;;;24.98;43.66;99550.47;5016434;28;20595;-76
2023/08/09 11:01:46;;;;;;;2.23;1.37;;;;;;;25.15;43.33;99550.06;5020255;28;20692;-75
2023/08/09 11:04:13;;;;;;;2.72;1.65;;;;;;;25.43;42.91;99543.03;5015700;28;20452;-76
2023/08/09 11:06:44;;;;;;;3.97;2.00;;;;;;;25.66;41.90;99549.00;5004247;28;20509;-76
2023/08/09 11:09:12;;;;;;;1.93;1.27;;;;;;;25.87;41.35;99539.19;5011310;28;20865;-76
2023/08/09 11:11:39;;;;;;;4.37;1.77;;;;;;;26.01;41.18;99547.16;5017412;28;20456;-76
2023/08/09 11:14:08;;;;;;;2.23;1.33;;;;;;;26.14;40.55;99548.25;5016053;28;20646;-78
2023/08/09 11:16:34;;;;;;;2.33;1.40;;;;;;;26.23;40.18;99545.19;5019064;28;20511;-76
2023/08/09 11:19:10;;;;;;;3.10;1.57;;;;;;;26.25;39.62;99540.44;5015210;28;20873;-77
2023/08/09 11:21:39;;;;;;;1.60;1.50;;;;;;;26.21;40.21;99543.72;5013457;28;20586;-74
2023/08/09 11:24:07;;;;;;;1.90;1.20;;;;;;;26.27;40.39;99541.09;5015460;28;20464;-75
2023/08/09 11:29:27;;;;;;;2.93;1.50;;;;;;;26.24;39.69;99538.75;4970646;28;21135;-74
2023/08/09 11:31:57;;;;;;;1.53;1.40;;;;;;;26.20;40.12;99540.22;4978521;28;20881;-74
2023/08/09 11:34:24;;;;;;;2.83;1.27;;;;;;;26.19;40.11;99541.25;4989436;28;20461;-75
2023/08/09 11:36:52;;;;;;;1.67;1.40;;;;;;;26.20;40.03;99540.22;4986916;28;20805;-75